createdAt,value
2023-02-25T00:01:04.774Z,85.96
2023-02-25T00:04:07.609Z,85.80
2023-02-25T00:07:10.508Z,85.49
2023-02-25T00:10:14.739Z,85.48
2023-02-25T00:13:18.710Z,85.48
2023-02-25T00:16:23.522Z,85.74
2023-02-25T00:19:27.109Z,85.62
2023-02-25T00:22:29.841Z,85.54
2023-02-25T00:25:32.625Z,85.40
2023-02-25T00:28:40.247Z,85.74
2023-02-25T00:31:44.639Z,85.34
2023-02-25T00:34:47.730Z,85.88
2023-02-25T00:37:55.674Z,85.77
2023-02-25T00:41:09.161Z,85.67
2023-02-25T00:44:13.455Z,85.55
2023-02-25T00:47:18.061Z,85.41
2023-02-25T00:50:20.872Z,84.91
2023-02-25T00:53:26.570Z,84.56
2023-02-25T00:56:29.366Z,84.35
2023-02-25T00:59:33.085Z,84.67
2023-02-25T01:02:37.206Z,84.71
2023-02-25T01:05:43.230Z,85.00
2023-02-25T01:08:46.256Z,84.99
2023-02-25T01:11:50.123Z,85.59
2023-02-25T01:14:56.088Z,85.64
2023-02-25T01:17:58.811Z,85.73
2023-02-25T01:21:01.539Z,85.79
2023-02-25T01:24:10.967Z,86.39
2023-02-25T01:27:13.779Z,86.70
2023-02-25T01:30:18.299Z,86.84
2023-02-25T01:33:21.000Z,86.93
2023-02-25T01:36:24.076Z,87.17
2023-02-25T01:39:28.045Z,87.51
2023-02-25T01:42:30.829Z,87.87
2023-02-25T01:45:33.707Z,87.43
2023-02-25T01:48:39.804Z,87.71
2023-02-25T01:51:44.531Z,87.61
2023-02-25T01:54:50.027Z,87.96
2023-02-25T01:57:52.744Z,88.02
2023-02-25T02:00:58.658Z,88.29
2023-02-25T02:04:04.498Z,88.54
2023-02-25T02:07:07.873Z,88.52
2023-02-25T02:10:11.804Z,88.33
2023-02-25T02:13:14.802Z,88.77
2023-02-25T02:16:35.943Z,88.29
2023-02-25T02:19:41.771Z,88.81
2023-02-25T02:22:57.505Z,88.76
2023-02-25T02:26:29.163Z,88.76
2023-02-25T02:30:33.694Z,88.81
2023-02-25T02:33:56.546Z,88.46
2023-02-25T02:37:08.317Z,88.25
2023-02-25T02:40:26.104Z,88.37
2023-02-25T02:43:50.209Z,88.51
2023-02-25T02:46:59.252Z,88.36
2023-02-25T02:50:25.139Z,87.60
2023-02-25T02:53:59.395Z,87.63
2023-02-25T02:57:02.829Z,87.72
2023-02-25T03:00:19.567Z,88.09
2023-02-25T03:03:36.552Z,89.38
2023-02-25T03:06:47.511Z,90.00
2023-02-25T03:09:52.648Z,91.44
2023-02-25T03:12:55.644Z,93.15
2023-02-25T03:16:00.053Z,94.74
2023-02-25T03:19:16.156Z,95.81
2023-02-25T03:22:23.422Z,96.05
2023-02-25T03:25:47.941Z,97.76
2023-02-25T03:28:50.674Z,98.97
2023-02-25T03:32:07.060Z,99.54
2023-02-25T03:35:11.203Z,100.00
2023-02-25T03:38:18.369Z,100.00
2023-02-25T03:41:22.467Z,100.00
2023-02-25T03:44:42.628Z,99.72
2023-02-25T03:47:48.814Z,100.00
2023-02-25T03:50:59.612Z,100.00
2023-02-25T03:54:02.778Z,100.00
2023-02-25T03:57:05.603Z,100.00
2023-02-25T04:00:18.203Z,100.00
2023-02-25T04:03:27.132Z,100.00
2023-02-25T04:06:29.928Z,100.00
2023-02-25T04:09:32.638Z,100.00
2023-02-25T04:12:35.497Z,100.00
2023-02-25T04:15:38.548Z,100.00
2023-02-25T04:18:41.569Z,100.00
2023-02-25T04:21:44.474Z,100.00
2023-02-25T04:24:48.445Z,100.00
2023-02-25T04:27:54.173Z,100.00
2023-02-25T04:30:57.156Z,100.00
2023-02-25T04:34:00.042Z,100.00
2023-02-25T04:37:04.840Z,100.00
2023-02-25T04:40:13.830Z,100.00
2023-02-25T04:43:19.433Z,100.00
2023-02-25T04:46:22.499Z,100.00
2023-02-25T04:49:25.519Z,100.00
2023-02-25T04:52:28.685Z,100.00
2023-02-25T04:55:31.380Z,100.00
2023-02-25T04:58:35.358Z,100.00
2023-02-25T05:01:39.137Z,100.00
2023-02-25T05:04:42.102Z,100.00
2023-02-25T05:07:44.839Z,100.00
2023-02-25T05:10:48.042Z,100.00
2023-02-25T05:13:50.914Z,100.00
2023-02-25T05:16:53.657Z,100.00
2023-02-25T05:19:56.493Z,100.00
2023-02-25T05:23:03.035Z,100.00
2023-02-25T05:26:06.462Z,100.00
2023-02-25T05:29:09.958Z,100.00
2023-02-25T05:32:13.163Z,100.00
2023-02-25T05:35:16.069Z,100.00
2023-02-25T05:38:18.893Z,100.00
2023-02-25T05:41:22.003Z,100.00
2023-02-25T05:44:25.255Z,100.00
2023-02-25T05:47:28.043Z,100.00
2023-02-25T05:50:32.037Z,100.00
2023-02-25T05:53:35.061Z,100.00
2023-02-25T05:56:37.793Z,100.00
2023-02-25T05:59:40.883Z,100.00
2023-02-25T06:02:44.645Z,100.00
2023-02-25T06:05:48.157Z,100.00
2023-02-25T06:08:51.620Z,100.00
2023-02-25T06:11:54.833Z,100.00
2023-02-25T06:14:57.638Z,98.39
2023-02-25T06:18:00.374Z,95.75
2023-02-25T06:21:08.524Z,93.57
2023-02-25T06:24:11.230Z,92.79
2023-02-25T06:27:14.812Z,91.46
2023-02-25T06:30:17.837Z,90.47
2023-02-25T06:33:20.782Z,90.42
2023-02-25T06:36:24.457Z,91.15
2023-02-25T06:39:27.735Z,90.89
2023-02-25T06:42:30.567Z,90.27
2023-02-25T06:45:33.279Z,89.81
2023-02-25T06:48:36.103Z,89.74
2023-02-25T06:51:39.118Z,89.36
2023-02-25T06:54:41.786Z,89.57
2023-02-25T06:57:44.524Z,89.69
2023-02-25T07:00:47.884Z,90.25
2023-02-25T07:03:51.133Z,89.13
2023-02-25T07:06:53.818Z,89.66
2023-02-25T07:09:58.404Z,89.31
2023-02-25T07:13:01.112Z,88.79
2023-02-25T07:16:04.149Z,88.63
2023-02-25T07:19:06.857Z,87.63
2023-02-25T07:22:15.482Z,87.78
2023-02-25T07:25:19.492Z,87.40
2023-02-25T07:28:22.304Z,87.44
2023-02-25T07:31:26.842Z,86.72
2023-02-25T07:34:29.787Z,85.28
2023-02-25T07:37:32.841Z,86.10
2023-02-25T07:40:35.742Z,84.34
2023-02-25T07:43:39.408Z,83.81
2023-02-25T07:46:42.498Z,83.44
2023-02-25T07:49:45.801Z,82.58
2023-02-25T07:52:48.527Z,82.82
2023-02-25T07:55:51.299Z,82.54
2023-02-25T07:58:54.130Z,83.27
2023-02-25T08:01:57.172Z,83.47
2023-02-25T08:05:00.691Z,82.75
2023-02-25T08:08:04.088Z,82.97
2023-02-25T08:11:08.797Z,84.28
2023-02-25T08:14:11.821Z,82.75
2023-02-25T08:17:14.918Z,81.98
2023-02-25T08:20:20.640Z,82.05
2023-02-25T08:23:23.622Z,82.60
2023-02-25T08:26:27.957Z,81.44
2023-02-25T08:29:30.749Z,81.72
2023-02-25T08:32:35.440Z,81.25
2023-02-25T08:35:38.834Z,80.33
2023-02-25T08:38:41.655Z,79.64
2023-02-25T08:41:45.069Z,79.44
2023-02-25T08:44:47.927Z,79.72
2023-02-25T08:47:50.622Z,76.37
2023-02-25T08:50:53.360Z,76.82
2023-02-25T08:53:59.078Z,75.28
2023-02-25T08:57:01.838Z,75.26
2023-02-25T09:00:06.991Z,71.88
2023-02-25T09:03:09.824Z,71.04
2023-02-25T09:06:12.851Z,71.22
2023-02-25T09:09:17.716Z,71.79
2023-02-25T09:12:22.059Z,72.43
2023-02-25T09:15:25.754Z,69.68
2023-02-25T09:18:29.089Z,70.92
2023-02-25T09:21:32.182Z,67.51
2023-02-25T09:24:35.678Z,66.90
2023-02-25T09:27:38.384Z,66.50
2023-02-25T09:30:41.386Z,64.94
2023-02-25T09:33:45.217Z,65.35
2023-02-25T09:36:47.970Z,64.43
2023-02-25T09:39:50.790Z,63.83
2023-02-25T09:43:19.696Z,62.71
2023-02-25T09:46:24.446Z,62.37
2023-02-25T09:49:42.077Z,61.04
2023-02-25T09:52:48.492Z,60.37
2023-02-25T09:55:53.302Z,61.51
2023-02-25T09:58:59.445Z,60.66
2023-02-25T10:02:37.251Z,58.81
2023-02-25T10:05:48.545Z,56.99
2023-02-25T10:09:19.774Z,57.41
2023-02-25T10:13:01.823Z,57.87
2023-02-25T10:16:13.924Z,56.41
2023-02-25T10:19:42.955Z,56.67
2023-02-25T10:22:55.190Z,56.90
2023-02-25T10:26:07.572Z,57.88
2023-02-25T10:29:21.493Z,55.36
2023-02-25T10:32:27.784Z,53.82
2023-02-25T10:35:33.764Z,54.36
2023-02-25T10:38:41.104Z,53.51
2023-02-25T10:41:44.269Z,53.00
2023-02-25T10:44:47.110Z,52.06
2023-02-25T10:47:55.851Z,52.55
2023-02-25T10:51:12.409Z,52.31
2023-02-25T10:54:15.137Z,53.02
2023-02-25T10:57:29.238Z,51.92
2023-02-25T11:00:36.646Z,50.42
2023-02-25T11:04:00.550Z,48.04
2023-02-25T11:07:24.603Z,46.92
2023-02-25T11:10:28.641Z,45.88
2023-02-25T11:13:35.834Z,46.33
2023-02-25T11:16:39.895Z,45.67
2023-02-25T11:19:48.487Z,43.60
2023-02-25T11:22:56.155Z,43.79
2023-02-25T11:25:59.088Z,43.81
2023-02-25T11:29:19.346Z,42.31
2023-02-25T11:32:22.995Z,43.66
2023-02-25T11:35:32.076Z,43.41
2023-02-25T11:38:40.560Z,43.29
2023-02-25T11:41:45.124Z,42.09
2023-02-25T11:44:47.915Z,42.38
2023-02-25T11:47:50.710Z,44.01
2023-02-25T11:51:03.591Z,43.75
2023-02-25T11:54:38.443Z,42.58
2023-02-25T11:58:07.402Z,43.09
2023-02-25T12:01:38.325Z,46.43
2023-02-25T12:04:53.272Z,41.89
2023-02-25T12:08:14.761Z,39.61
2023-02-25T12:11:51.389Z,39.78
2023-02-25T12:15:25.907Z,38.45
2023-02-25T12:18:55.237Z,37.30
2023-02-25T12:22:22.894Z,37.08
2023-02-25T12:25:51.569Z,37.91
2023-02-25T12:29:12.111Z,38.28
2023-02-25T12:32:46.667Z,38.42
2023-02-25T12:35:55.358Z,36.85
2023-02-25T12:39:17.562Z,36.73
2023-02-25T12:42:20.187Z,37.30
2023-02-25T12:45:48.803Z,38.42
2023-02-25T12:48:59.578Z,37.93
2023-02-25T12:52:23.865Z,38.17
2023-02-25T12:55:35.031Z,39.72
2023-02-25T12:59:05.156Z,40.13
2023-02-25T13:02:22.701Z,40.77
2023-02-25T13:05:31.501Z,39.92
2023-02-25T13:08:59.365Z,38.94
2023-02-25T13:12:11.819Z,38.37
2023-02-25T13:15:22.846Z,39.69
2023-02-25T13:18:40.919Z,39.36
2023-02-25T13:22:10.202Z,38.91
2023-02-25T13:25:21.171Z,39.69
2023-02-25T13:28:26.261Z,39.79
2023-02-25T13:31:44.387Z,41.13
2023-02-25T13:35:12.771Z,42.45
2023-02-25T13:38:24.522Z,42.47
2023-02-25T13:41:46.798Z,42.06
2023-02-25T13:45:12.398Z,41.77
2023-02-25T13:48:30.427Z,40.79
2023-02-25T13:51:51.230Z,40.13
2023-02-25T13:55:14.729Z,39.08
2023-02-25T13:59:14.936Z,38.01
2023-02-25T14:02:42.690Z,39.03
2023-02-25T14:06:08.768Z,39.37
2023-02-25T14:09:32.974Z,40.43
2023-02-25T14:12:49.089Z,39.84
2023-02-25T14:16:08.168Z,38.89
2023-02-25T14:19:23.248Z,39.27
2023-02-25T14:22:37.539Z,40.23
2023-02-25T14:26:17.528Z,39.54
2023-02-25T14:29:44.892Z,39.66
2023-02-25T14:33:30.690Z,37.24
2023-02-25T14:36:49.431Z,35.19
2023-02-25T14:40:02.070Z,34.74
2023-02-25T14:43:16.270Z,36.21
2023-02-25T14:46:41.322Z,35.20
2023-02-25T14:49:58.019Z,34.12
2023-02-25T14:53:20.536Z,34.08
2023-02-25T14:56:36.056Z,34.97
2023-02-25T14:59:41.847Z,34.48
2023-02-25T15:03:00.083Z,36.71
2023-02-25T15:06:39.927Z,39.89
2023-02-25T15:10:24.666Z,41.27
2023-02-25T15:13:43.523Z,42.59
2023-02-25T15:16:57.361Z,42.88
2023-02-25T15:20:10.049Z,43.12
2023-02-25T15:23:17.978Z,43.80
2023-02-25T15:26:42.748Z,43.32
2023-02-25T15:29:45.609Z,43.37
2023-02-25T15:32:57.903Z,44.08
2023-02-25T15:36:02.710Z,44.46
2023-02-25T15:39:05.981Z,44.64
2023-02-25T15:42:12.942Z,45.31
2023-02-25T15:45:28.364Z,45.46
2023-02-25T15:48:33.666Z,44.84
2023-02-25T15:51:48.760Z,45.07
2023-02-25T15:54:52.095Z,45.51
2023-02-25T15:57:54.854Z,46.04
2023-02-25T16:00:57.860Z,46.79
2023-02-25T16:04:02.002Z,46.75
2023-02-25T16:07:08.481Z,46.64
2023-02-25T16:10:36.268Z,47.07
2023-02-25T16:13:42.233Z,47.65
2023-02-25T16:16:50.238Z,48.85
2023-02-25T16:20:00.063Z,48.66
2023-02-25T16:23:03.911Z,49.87
2023-02-25T16:26:18.825Z,49.43
2023-02-25T16:29:39.533Z,50.54
2023-02-25T16:33:08.796Z,51.37
2023-02-25T16:36:36.204Z,56.87
2023-02-25T16:39:40.027Z,63.36
2023-02-25T16:42:43.200Z,68.27
2023-02-25T16:46:14.341Z,70.54
2023-02-25T16:49:27.251Z,72.82
2023-02-25T16:52:38.154Z,74.32
2023-02-25T16:55:41.007Z,76.25
2023-02-25T16:58:44.430Z,77.06
2023-02-25T17:01:54.158Z,78.29
2023-02-25T17:04:57.289Z,79.03
2023-02-25T17:08:02.604Z,79.25
2023-02-25T17:11:06.043Z,78.08
2023-02-25T17:14:08.767Z,78.69
2023-02-25T17:17:38.956Z,77.69
2023-02-25T17:20:42.348Z,77.67
2023-02-25T17:23:45.554Z,77.34
2023-02-25T17:26:51.384Z,76.78
2023-02-25T17:29:54.540Z,76.55
2023-02-25T17:32:59.277Z,76.46
2023-02-25T17:36:08.862Z,76.39
2023-02-25T17:39:15.916Z,76.68
2023-02-25T17:42:32.606Z,77.14
2023-02-25T17:45:40.121Z,77.27
2023-02-25T17:48:45.732Z,77.00
2023-02-25T17:51:53.731Z,76.67
2023-02-25T17:55:07.991Z,76.51
2023-02-25T17:58:23.316Z,77.14
2023-02-25T18:01:31.248Z,77.67
2023-02-25T18:04:41.456Z,78.00
2023-02-25T18:08:16.870Z,78.65
2023-02-25T18:11:27.675Z,78.56
2023-02-25T18:14:38.949Z,78.66
2023-02-25T18:17:43.983Z,78.43
2023-02-25T18:20:47.759Z,78.20
2023-02-25T18:23:51.318Z,77.59
2023-02-25T18:27:27.665Z,78.77
2023-02-25T18:30:33.056Z,78.21
2023-02-25T18:33:35.912Z,79.55
2023-02-25T18:36:38.656Z,80.13
2023-02-25T18:39:42.139Z,81.07
2023-02-25T18:42:45.075Z,81.79
2023-02-25T18:45:50.071Z,82.25
2023-02-25T18:48:53.242Z,82.62
2023-02-25T18:51:57.065Z,82.60
2023-02-25T18:54:59.843Z,82.26
2023-02-25T18:58:04.991Z,82.46
2023-02-25T19:01:17.902Z,82.92
2023-02-25T19:04:21.301Z,82.67
2023-02-25T19:07:26.833Z,83.49
2023-02-25T19:10:31.494Z,82.89
2023-02-25T19:13:40.711Z,82.58
2023-02-25T19:16:43.705Z,82.51
2023-02-25T19:19:46.922Z,82.04
2023-02-25T19:22:52.390Z,82.31
2023-02-25T19:26:00.873Z,81.98
2023-02-25T19:29:06.866Z,82.18
2023-02-25T19:32:09.900Z,81.93
2023-02-25T19:35:12.853Z,81.86
2023-02-25T19:38:18.851Z,81.41
2023-02-25T19:41:22.146Z,81.42
2023-02-25T19:44:26.369Z,81.24
2023-02-25T19:47:29.334Z,81.71
2023-02-25T19:50:35.034Z,81.97
2023-02-25T19:53:38.382Z,81.67
2023-02-25T19:56:41.536Z,81.76
2023-02-25T19:59:44.473Z,81.64
2023-02-25T20:02:48.931Z,82.13
2023-02-25T20:05:52.488Z,82.21
2023-02-25T20:08:56.305Z,82.36
2023-02-25T20:12:01.660Z,82.78
2023-02-25T20:15:06.949Z,83.82
2023-02-25T20:18:09.957Z,83.54
2023-02-25T20:21:15.871Z,83.42
2023-02-25T20:24:20.032Z,83.57
2023-02-25T20:27:23.433Z,83.98
2023-02-25T20:30:26.284Z,83.91
2023-02-25T20:33:29.438Z,84.47
2023-02-25T20:36:38.696Z,83.99
2023-02-25T20:39:56.576Z,84.02
2023-02-25T20:42:59.768Z,84.38
2023-02-25T20:46:03.007Z,84.01
2023-02-25T20:49:08.307Z,84.97
2023-02-25T20:52:13.799Z,84.33
2023-02-25T20:55:17.328Z,84.23
2023-02-25T20:58:21.143Z,84.65
2023-02-25T21:01:23.893Z,84.33
2023-02-25T21:04:26.773Z,84.12
2023-02-25T21:07:29.881Z,84.40
2023-02-25T21:10:33.176Z,84.25
2023-02-25T21:13:39.011Z,84.52
2023-02-25T21:16:48.224Z,84.30
2023-02-25T21:19:51.348Z,84.27
2023-02-25T21:22:54.049Z,83.93
2023-02-25T21:25:58.068Z,83.70
2023-02-25T21:29:01.102Z,84.06
2023-02-25T21:32:04.432Z,84.04
2023-02-25T21:35:09.542Z,84.16
2023-02-25T21:38:12.402Z,84.08
2023-02-25T21:41:16.112Z,83.98
2023-02-25T21:44:19.031Z,84.14
2023-02-25T21:47:21.820Z,83.92
2023-02-25T21:50:24.768Z,84.04
2023-02-25T21:53:28.279Z,84.09
2023-02-25T21:56:31.198Z,84.19
2023-02-25T21:59:37.525Z,84.42
2023-02-25T22:02:40.746Z,85.11
2023-02-25T22:05:47.321Z,84.78
2023-02-25T22:08:50.349Z,85.16
2023-02-25T22:11:53.102Z,85.74
2023-02-25T22:14:55.864Z,86.08
2023-02-25T22:17:58.733Z,86.15
2023-02-25T22:21:28.949Z,86.22
2023-02-25T22:24:31.861Z,87.21
2023-02-25T22:27:37.694Z,87.23
2023-02-25T22:30:40.812Z,87.14
2023-02-25T22:33:44.515Z,87.08
2023-02-25T22:36:47.991Z,88.06
2023-02-25T22:39:51.048Z,87.85
2023-02-25T22:42:53.812Z,87.73
2023-02-25T22:46:09.076Z,88.20
2023-02-25T22:49:13.489Z,88.04
2023-02-25T22:52:16.491Z,88.59
2023-02-25T22:55:19.259Z,88.87
2023-02-25T22:58:21.937Z,88.30
2023-02-25T23:01:25.271Z,88.87
2023-02-25T23:04:28.162Z,88.53
2023-02-25T23:07:30.856Z,87.99
2023-02-25T23:10:36.208Z,88.06
2023-02-25T23:13:49.194Z,87.96
2023-02-25T23:16:54.901Z,88.39
2023-02-25T23:20:00.483Z,88.22
2023-02-25T23:23:05.247Z,88.38
2023-02-25T23:26:08.786Z,88.57
2023-02-25T23:29:12.179Z,88.73
2023-02-25T23:32:14.934Z,88.76
2023-02-25T23:35:18.028Z,88.97
2023-02-25T23:38:20.705Z,89.11
2023-02-25T23:41:23.533Z,89.34
2023-02-25T23:44:26.324Z,89.65
2023-02-25T23:47:30.175Z,89.29
2023-02-25T23:50:33.006Z,89.31
2023-02-25T23:53:36.262Z,89.54
2023-02-25T23:56:39.206Z,89.57
2023-02-25T23:59:45.228Z,89.25
